createdAt,value
2018-05-26T00:00:01.669Z,12.7
2018-05-26T00:05:02.070Z,12.6
2018-05-26T00:10:02.220Z,12.6
2018-05-26T00:15:01.929Z,12.5
2018-05-26T00:20:01.912Z,12.5
2018-05-26T00:25:01.631Z,12.5
2018-05-26T00:30:02.466Z,12.5
2018-05-26T00:35:01.970Z,12.4
2018-05-26T00:40:01.526Z,12.4
2018-05-26T00:45:01.524Z,12.4
2018-05-26T00:50:02.107Z,12.4
2018-05-26T00:55:01.474Z,12.4
2018-05-26T01:00:01.434Z,12.4
2018-05-26T01:05:01.922Z,12.4
2018-05-26T01:10:02.051Z,12.4
2018-05-26T01:15:02.139Z,12.4
2018-05-26T01:20:01.222Z,12.4
2018-05-26T01:25:02.428Z,12.4
2018-05-26T01:30:01.246Z,12.4
2018-05-26T01:35:01.282Z,12.4
2018-05-26T01:40:01.190Z,12.4
2018-05-26T01:45:01.944Z,12.4
2018-05-26T01:50:01.602Z,12.4
2018-05-26T01:55:01.471Z,12.3
2018-05-26T02:00:02.040Z,12.3
2018-05-26T02:05:02.049Z,12.4
2018-05-26T02:10:01.921Z,12.3
2018-05-26T02:15:02.090Z,12.4
2018-05-26T02:20:01.913Z,12.4
2018-05-26T02:25:01.329Z,12.5
2018-05-26T02:30:01.641Z,12.5
2018-05-26T02:35:01.995Z,12.5
2018-05-26T02:40:01.719Z,12.4
2018-05-26T02:45:01.461Z,12.4
2018-05-26T02:50:01.875Z,12.5
2018-05-26T02:55:01.465Z,12.6
2018-05-26T03:00:01.799Z,12.6
2018-05-26T03:05:02.249Z,12.5
2018-05-26T03:10:01.964Z,12.6
2018-05-26T03:15:01.984Z,12.7
2018-05-26T03:20:02.558Z,12.7
2018-05-26T03:25:02.127Z,12.8
2018-05-26T03:30:01.473Z,12.9
2018-05-26T03:35:01.983Z,12.9
2018-05-26T03:40:02.209Z,13
2018-05-26T03:45:01.883Z,13.1
2018-05-26T03:50:01.912Z,13.2
2018-05-26T03:55:01.523Z,13.2
2018-05-26T04:00:02.115Z,13.2
2018-05-26T04:05:01.209Z,13.2
2018-05-26T04:10:02.145Z,13.3
2018-05-26T04:15:01.609Z,13.3
2018-05-26T04:20:01.788Z,13.5
2018-05-26T04:25:01.818Z,13.6
2018-05-26T04:30:01.939Z,13.7
2018-05-26T04:35:02.080Z,13.8
2018-05-26T04:40:01.259Z,13.8
2018-05-26T04:45:01.549Z,13.9
2018-05-26T04:50:01.413Z,14.1
2018-05-26T04:55:01.587Z,14.2
2018-05-26T05:00:01.269Z,14.3
2018-05-26T05:05:01.807Z,14.4
2018-05-26T05:10:01.769Z,14.6
2018-05-26T05:15:01.745Z,14.5
2018-05-26T05:20:02.120Z,14.6
2018-05-26T05:25:01.233Z,14.8
2018-05-26T05:30:01.892Z,14.9
2018-05-26T05:35:01.627Z,15.1
2018-05-26T05:40:01.738Z,15.5
2018-05-26T05:45:01.685Z,15.7
2018-05-26T05:50:01.295Z,15.7
2018-05-26T05:55:01.214Z,15.9
2018-05-26T06:00:01.968Z,16.2
2018-05-26T06:05:02.036Z,16.5
2018-05-26T06:10:01.490Z,17
2018-05-26T06:15:02.350Z,17.1
2018-05-26T06:20:01.978Z,17.3
2018-05-26T06:25:01.416Z,17.8
2018-05-26T06:30:02.064Z,17.9
2018-05-26T06:35:01.690Z,18.3
2018-05-26T06:40:01.590Z,18.6
2018-05-26T06:45:01.541Z,18.9
2018-05-26T06:50:01.587Z,19.1
2018-05-26T06:55:01.855Z,19.5
2018-05-26T07:00:01.383Z,19.7
2018-05-26T07:05:02.128Z,20
2018-05-26T07:10:01.778Z,20.3
2018-05-26T07:15:01.246Z,20.4
2018-05-26T07:20:02.027Z,20.4
2018-05-26T07:25:01.996Z,20.7
2018-05-26T07:30:02.041Z,21
2018-05-26T07:35:01.804Z,21.1
2018-05-26T07:40:01.797Z,21
2018-05-26T07:45:01.190Z,21
2018-05-26T07:50:02.238Z,20.8
2018-05-26T07:55:01.695Z,21.1
2018-05-26T08:00:02.123Z,21.2
2018-05-26T08:05:01.354Z,21.5
2018-05-26T08:10:01.860Z,21.6
2018-05-26T08:15:01.498Z,21.8
2018-05-26T08:20:01.488Z,22.1
2018-05-26T08:25:01.545Z,22.5
2018-05-26T08:30:02.196Z,22.6
2018-05-26T08:35:01.756Z,23
2018-05-26T08:40:01.852Z,23.3
2018-05-26T08:45:01.294Z,23.5
2018-05-26T08:50:02.182Z,24
2018-05-26T08:55:01.711Z,24.2
2018-05-26T09:00:01.826Z,24.5
2018-05-26T09:05:01.643Z,24.5
2018-05-26T09:10:01.200Z,24.4
2018-05-26T09:15:02.236Z,24.3
2018-05-26T09:20:01.206Z,24.3
2018-05-26T09:25:02.192Z,24.7
2018-05-26T09:30:01.916Z,24.8
2018-05-26T09:35:01.850Z,24.8
2018-05-26T09:40:01.693Z,24.5
2018-05-26T09:45:01.334Z,24.4
2018-05-26T09:50:02.096Z,24.4
2018-05-26T09:55:01.579Z,24.6
2018-05-26T10:00:01.297Z,25.1
2018-05-26T10:05:01.393Z,25.4
2018-05-26T10:10:01.637Z,25.4
2018-05-26T10:15:01.852Z,26.1
2018-05-26T10:20:01.766Z,26.1
2018-05-26T10:25:02.360Z,25.5
2018-05-26T10:30:01.854Z,25.2
2018-05-26T10:35:01.422Z,24.9
2018-05-26T10:40:01.299Z,24.7
2018-05-26T10:45:01.804Z,24.6
2018-05-26T10:50:01.846Z,24.8
2018-05-26T10:55:02.057Z,25.3
2018-05-26T11:00:01.691Z,25.4
2018-05-26T11:05:01.510Z,25.6
2018-05-26T11:10:01.749Z,25.9
2018-05-26T11:15:01.698Z,26.3
2018-05-26T11:20:01.437Z,26.1
2018-05-26T11:25:01.887Z,25.7
2018-05-26T11:30:01.988Z,25.8
2018-05-26T11:35:01.911Z,25.6
2018-05-26T11:40:01.701Z,25.5
2018-05-26T11:45:02.249Z,25.3
2018-05-26T11:50:01.305Z,25.3
2018-05-26T11:55:01.667Z,25.3
2018-05-26T12:00:01.857Z,25.3
2018-05-26T12:05:01.636Z,25.4
2018-05-26T12:10:01.784Z,25.6
2018-05-26T12:15:01.995Z,25.7
2018-05-26T12:20:01.809Z,25.7
2018-05-26T12:25:01.296Z,25.5
2018-05-26T12:30:01.838Z,25.4
2018-05-26T12:35:02.323Z,26.2
2018-05-26T12:40:01.473Z,26.3
2018-05-26T12:45:02.162Z,26.2
2018-05-26T12:50:01.549Z,26.4
2018-05-26T12:55:01.693Z,26.3
2018-05-26T13:00:01.821Z,26.4
2018-05-26T13:05:01.723Z,26.4
2018-05-26T13:10:02.179Z,26.3
2018-05-26T13:15:01.252Z,26.7
2018-05-26T13:20:02.158Z,27.1
2018-05-26T13:25:01.790Z,27
2018-05-26T13:30:02.170Z,27.4
2018-05-26T13:35:01.808Z,26.7
2018-05-26T13:40:01.782Z,27
2018-05-26T13:45:01.495Z,26.9
2018-05-26T13:50:02.254Z,26.6
2018-05-26T13:55:01.889Z,26.8
2018-05-26T14:00:01.948Z,26.8
2018-05-26T14:05:02.034Z,26.7
2018-05-26T14:10:02.296Z,26.8
2018-05-26T14:15:01.428Z,27.3
2018-05-26T14:20:01.828Z,27.1
2018-05-26T14:25:01.716Z,27.1
2018-05-26T14:30:01.596Z,27.2
2018-05-26T14:35:01.643Z,27.4
2018-05-26T14:40:01.514Z,27.7
2018-05-26T14:45:02.354Z,27.9
2018-05-26T14:50:01.984Z,27.8
2018-05-26T14:55:01.537Z,27.5
2018-05-26T15:00:02.609Z,27.7
2018-05-26T15:05:01.176Z,27.5
2018-05-26T15:10:01.267Z,26.9
2018-05-26T15:15:01.308Z,26.7
2018-05-26T15:20:01.613Z,26.8
2018-05-26T15:25:01.987Z,26.8
2018-05-26T15:30:01.491Z,26.5
2018-05-26T15:35:01.841Z,26.8
2018-05-26T15:40:01.801Z,26.7
2018-05-26T15:45:01.994Z,26.5
2018-05-26T15:50:02.640Z,26.2
2018-05-26T15:55:01.262Z,26.3
2018-05-26T16:00:01.219Z,26.2
2018-05-26T16:05:01.762Z,26.1
2018-05-26T16:10:02.264Z,26.1
2018-05-26T16:15:01.705Z,26.2
2018-05-26T16:20:01.525Z,26.3
2018-05-26T16:25:01.499Z,26.2
2018-05-26T16:30:02.054Z,26
2018-05-26T16:35:02.016Z,25.8
2018-05-26T16:40:02.133Z,25.6
2018-05-26T16:45:01.705Z,25.2
2018-05-26T16:50:02.202Z,25.3
2018-05-26T16:55:01.713Z,25.1
2018-05-26T17:00:01.476Z,24.9
2018-05-26T17:05:02.718Z,24.7
2018-05-26T17:10:01.964Z,24.5
2018-05-26T17:15:01.753Z,23.9
2018-05-26T17:20:01.372Z,23.6
2018-05-26T17:25:02.067Z,23.2
2018-05-26T17:30:01.373Z,23.1
2018-05-26T17:35:02.437Z,22.2
2018-05-26T17:40:02.034Z,21.8
2018-05-26T17:45:01.231Z,21.3
2018-05-26T17:50:01.768Z,21
2018-05-26T17:55:02.308Z,20.9
2018-05-26T18:00:01.597Z,20.9
2018-05-26T18:05:01.721Z,20.9
2018-05-26T18:10:01.556Z,20.9
2018-05-26T18:15:01.839Z,20.8
2018-05-26T18:20:01.651Z,20.7
2018-05-26T18:25:01.217Z,20.7
2018-05-26T18:30:01.987Z,20.6
2018-05-26T18:35:01.515Z,20.5
2018-05-26T18:40:01.494Z,20.1
2018-05-26T18:45:01.915Z,19.9
2018-05-26T18:50:01.817Z,19.7
2018-05-26T18:55:01.521Z,19.7
2018-05-26T19:00:02.183Z,19.6
2018-05-26T19:05:02.129Z,19.3
2018-05-26T19:10:01.601Z,19.2
2018-05-26T19:15:02.395Z,19.2
2018-05-26T19:20:01.598Z,19.1
2018-05-26T19:25:02.830Z,19
2018-05-26T19:30:01.778Z,18.8
2018-05-26T19:35:03.039Z,18.6
2018-05-26T19:40:02.329Z,18.5
2018-05-26T19:45:01.817Z,18.5
2018-05-26T19:50:01.954Z,18.3
2018-05-26T19:55:01.872Z,18.2
2018-05-26T20:00:01.364Z,17.9
2018-05-26T20:05:02.246Z,17.8
2018-05-26T20:10:01.386Z,17.5
2018-05-26T20:15:02.425Z,17.4
2018-05-26T20:20:01.525Z,17.2
2018-05-26T20:25:01.769Z,16.9
2018-05-26T20:30:01.830Z,16.8
2018-05-26T20:35:01.651Z,16.7
2018-05-26T20:40:01.590Z,16.6
2018-05-26T20:45:02.139Z,16.6
2018-05-26T20:50:02.070Z,16.6
2018-05-26T20:55:01.558Z,16.5
2018-05-26T21:00:01.456Z,16.5
2018-05-26T21:05:01.539Z,16.4
2018-05-26T21:10:01.852Z,16.4
2018-05-26T21:15:01.777Z,16.4
2018-05-26T21:20:01.205Z,16.4
2018-05-26T21:25:01.773Z,16.3
2018-05-26T21:30:01.243Z,16.3
2018-05-26T21:35:01.454Z,16.1
2018-05-26T21:40:01.585Z,15.9
2018-05-26T21:45:01.958Z,15.9
2018-05-26T21:50:01.772Z,15.8
2018-05-26T21:55:01.889Z,15.7
2018-05-26T22:00:01.815Z,15.6
2018-05-26T22:05:01.261Z,15.6
2018-05-26T22:10:02.257Z,15.5
2018-05-26T22:15:02.132Z,15.5
2018-05-26T22:20:01.640Z,15.4
2018-05-26T22:25:01.434Z,15.5
2018-05-26T22:30:01.792Z,15.5
2018-05-26T22:35:01.883Z,15.5
2018-05-26T22:40:01.886Z,15.5
2018-05-26T22:45:02.466Z,15.5
2018-05-26T22:50:01.159Z,15.4
2018-05-26T22:55:01.507Z,15.4
2018-05-26T23:00:01.348Z,15.4
2018-05-26T23:05:01.721Z,15.4
2018-05-26T23:10:01.484Z,15.4
2018-05-26T23:15:01.905Z,15.4
2018-05-26T23:20:01.892Z,15.4
2018-05-26T23:25:02.027Z,15.4
2018-05-26T23:30:01.946Z,15.4
2018-05-26T23:35:01.446Z,15.5
2018-05-26T23:40:01.322Z,15.6
2018-05-26T23:45:01.725Z,15.6
2018-05-26T23:50:02.407Z,15.7
2018-05-26T23:55:01.305Z,15.7
